createdAt,value
2022-11-27T00:03:08.258Z,-5.24
2022-11-27T00:06:32.396Z,-5.23
2022-11-27T00:09:54.125Z,-5.21
2022-11-27T00:13:16.273Z,-5.23
2022-11-27T00:16:38.101Z,-5.25
2022-11-27T00:20:00.198Z,-5.20
2022-11-27T00:23:23.424Z,-5.23
2022-11-27T00:26:46.854Z,-5.22
2022-11-27T00:30:10.250Z,-5.24
2022-11-27T00:33:32.390Z,-5.25
2022-11-27T00:36:54.692Z,-5.23
2022-11-27T00:40:18.058Z,-5.22
2022-11-27T00:43:44.632Z,-5.22
2022-11-27T00:47:06.799Z,-5.24
2022-11-27T00:50:31.792Z,-5.27
2022-11-27T00:53:54.455Z,-5.22
2022-11-27T00:57:17.809Z,-5.23
2022-11-27T01:00:39.654Z,-5.31
2022-11-27T01:04:02.859Z,-5.27
2022-11-27T01:07:25.091Z,-5.29
2022-11-27T01:10:54.731Z,-5.30
2022-11-27T01:14:19.610Z,-5.29
2022-11-27T01:17:41.736Z,-5.29
2022-11-27T01:21:04.004Z,-5.34
2022-11-27T01:24:26.159Z,-5.29
2022-11-27T01:27:50.310Z,-5.29
2022-11-27T01:31:16.767Z,-5.29
2022-11-27T01:34:39.077Z,-5.29
2022-11-27T01:38:01.131Z,-5.28
2022-11-27T01:41:26.127Z,-5.32
2022-11-27T01:44:54.515Z,-5.32
2022-11-27T01:48:17.937Z,-5.33
2022-11-27T01:51:43.241Z,-5.34
2022-11-27T01:55:09.904Z,-5.36
2022-11-27T01:58:33.205Z,-5.39
2022-11-27T02:01:55.276Z,-5.35
2022-11-27T02:05:22.131Z,-5.33
2022-11-27T02:08:44.296Z,-5.34
2022-11-27T02:12:16.916Z,-5.34
2022-11-27T02:15:45.570Z,-5.35
2022-11-27T02:19:15.600Z,-5.36
2022-11-27T02:22:59.228Z,-5.39
2022-11-27T02:26:57.475Z,-5.38
2022-11-27T02:30:21.285Z,-5.38
2022-11-27T02:33:51.554Z,-5.37
2022-11-27T02:37:18.520Z,-5.41
2022-11-27T02:40:46.422Z,-5.44
2022-11-27T02:44:10.917Z,-5.39
2022-11-27T02:47:34.902Z,-5.41
2022-11-27T02:50:57.816Z,-5.42
2022-11-27T02:54:27.746Z,-5.40
2022-11-27T02:57:52.078Z,-5.45
2022-11-27T03:01:16.792Z,-5.39
2022-11-27T03:04:48.770Z,-5.39
2022-11-27T03:08:19.223Z,-5.43
2022-11-27T03:11:41.091Z,-5.46
2022-11-27T03:15:02.868Z,-5.44
2022-11-27T03:18:35.901Z,-5.48
2022-11-27T03:22:02.104Z,-5.47
2022-11-27T03:25:24.631Z,-5.43
2022-11-27T03:28:48.304Z,-5.48
2022-11-27T03:32:10.911Z,-5.45
2022-11-27T03:35:32.687Z,-5.49
2022-11-27T03:38:56.726Z,-5.48
2022-11-27T03:42:28.097Z,-5.48
2022-11-27T03:45:57.726Z,-5.50
2022-11-27T03:49:29.947Z,-5.58
2022-11-27T03:53:01.728Z,-5.55
2022-11-27T03:56:33.216Z,-5.52
2022-11-27T04:00:00.402Z,-5.54
2022-11-27T04:03:28.348Z,-5.53
2022-11-27T04:06:50.102Z,-5.53
2022-11-27T04:10:13.098Z,-5.50
2022-11-27T04:13:37.165Z,-5.49
2022-11-27T04:16:59.046Z,-5.49
2022-11-27T04:20:21.206Z,-5.50
2022-11-27T04:23:46.027Z,-5.50
2022-11-27T04:27:07.848Z,-5.58
2022-11-27T04:30:31.390Z,-5.44
2022-11-27T04:33:53.169Z,-5.44
2022-11-27T04:37:14.924Z,-5.47
2022-11-27T04:40:36.955Z,-5.43
2022-11-27T04:43:58.729Z,-5.44
2022-11-27T04:47:22.493Z,-5.41
2022-11-27T04:50:44.755Z,-5.45
2022-11-27T04:54:06.736Z,-5.46
2022-11-27T04:57:28.458Z,-5.46
2022-11-27T05:00:50.058Z,-5.46
2022-11-27T05:04:13.572Z,-5.44
2022-11-27T05:07:35.533Z,-5.44
2022-11-27T05:11:02.669Z,-5.42
2022-11-27T05:14:29.310Z,-5.46
2022-11-27T05:17:51.296Z,-5.44
2022-11-27T05:21:14.395Z,-5.42
2022-11-27T05:24:37.331Z,-5.42
2022-11-27T05:27:59.051Z,-5.37
2022-11-27T05:31:21.041Z,-5.37
2022-11-27T05:34:43.090Z,-5.33
2022-11-27T05:38:07.433Z,-5.35
2022-11-27T05:41:29.663Z,-5.37
2022-11-27T05:44:56.696Z,-5.35
2022-11-27T05:48:20.310Z,-5.36
2022-11-27T05:51:50.978Z,-5.35
2022-11-27T05:55:15.035Z,-5.40
2022-11-27T05:58:37.621Z,-5.36
2022-11-27T06:01:59.661Z,-5.36
2022-11-27T06:05:21.859Z,-5.35
2022-11-27T06:08:44.754Z,-5.36
2022-11-27T06:12:09.029Z,-5.38
2022-11-27T06:15:31.088Z,-5.42
2022-11-27T06:18:57.640Z,-5.40
2022-11-27T06:22:19.874Z,-5.35
2022-11-27T06:25:41.874Z,-5.42
2022-11-27T06:29:05.499Z,-5.33
2022-11-27T06:32:27.207Z,-5.30
2022-11-27T06:35:48.693Z,-5.27
2022-11-27T06:39:12.529Z,-5.24
2022-11-27T06:42:34.207Z,-5.25
2022-11-27T06:46:01.680Z,-5.22
2022-11-27T06:49:24.130Z,-5.22
2022-11-27T06:52:46.380Z,-5.18
2022-11-27T06:56:12.503Z,-5.18
2022-11-27T06:59:34.571Z,-5.21
2022-11-27T07:02:57.925Z,-5.14
2022-11-27T07:06:21.073Z,-5.07
2022-11-27T07:09:42.900Z,-5.04
2022-11-27T07:13:05.038Z,-5.01
2022-11-27T07:16:27.664Z,-5.02
2022-11-27T07:19:50.860Z,-4.98
2022-11-27T07:23:12.680Z,-4.90
2022-11-27T07:26:34.348Z,-4.87
2022-11-27T07:29:55.961Z,-4.86
2022-11-27T07:33:18.143Z,-4.82
2022-11-27T07:36:41.491Z,-4.80
2022-11-27T07:40:03.927Z,-4.72
2022-11-27T07:43:25.907Z,-4.71
2022-11-27T07:46:48.084Z,-4.67
2022-11-27T07:50:11.063Z,-4.70
2022-11-27T07:53:36.653Z,-4.67
2022-11-27T07:56:58.740Z,-4.67
2022-11-27T08:00:22.073Z,-4.64
2022-11-27T08:03:45.415Z,-4.59
2022-11-27T08:07:07.618Z,-4.57
2022-11-27T08:10:36.643Z,-4.52
2022-11-27T08:14:00.819Z,-4.52
2022-11-27T08:17:25.616Z,-4.49
2022-11-27T08:20:47.749Z,-4.50
2022-11-27T08:24:10.150Z,-4.50
2022-11-27T08:27:34.645Z,-4.46
2022-11-27T08:31:00.168Z,-4.44
2022-11-27T08:34:22.157Z,-4.41
2022-11-27T08:37:44.335Z,-4.37
2022-11-27T08:41:08.322Z,-4.34
2022-11-27T08:44:31.565Z,-4.32
2022-11-27T08:47:53.522Z,-4.30
2022-11-27T08:51:16.856Z,-4.28
2022-11-27T08:54:39.091Z,-4.29
2022-11-27T08:58:01.395Z,-4.20
2022-11-27T09:01:29.312Z,-4.18
2022-11-27T09:04:51.147Z,-4.12
2022-11-27T09:08:16.731Z,-4.11
2022-11-27T09:11:38.642Z,-4.07
2022-11-27T09:15:00.818Z,-4.17
2022-11-27T09:18:24.166Z,-4.15
2022-11-27T09:21:47.019Z,-4.14
2022-11-27T09:25:10.346Z,-4.18
2022-11-27T09:28:33.856Z,-4.10
2022-11-27T09:31:55.733Z,-4.04
2022-11-27T09:35:19.291Z,-4.03
2022-11-27T09:38:42.547Z,-4.02
2022-11-27T09:42:09.822Z,-4.03
2022-11-27T09:45:32.441Z,-3.95
2022-11-27T09:48:57.004Z,-3.95
2022-11-27T09:52:25.715Z,-3.99
2022-11-27T09:55:50.969Z,-3.96
2022-11-27T09:59:17.914Z,-3.91
2022-11-27T10:02:41.898Z,-3.86
2022-11-27T10:06:16.833Z,-3.80
2022-11-27T10:09:56.003Z,-3.84
2022-11-27T10:13:33.632Z,-3.80
2022-11-27T10:17:01.095Z,-3.76
2022-11-27T10:20:29.888Z,-3.77
2022-11-27T10:24:00.450Z,-3.83
2022-11-27T10:27:30.714Z,-3.82
2022-11-27T10:30:57.079Z,-3.78
2022-11-27T10:34:31.551Z,-3.78
2022-11-27T10:38:00.993Z,-3.72
2022-11-27T10:45:26.067Z,-3.67
2022-11-27T10:48:48.753Z,-3.65
2022-11-27T10:52:15.406Z,-3.64
2022-11-27T10:55:51.898Z,-3.60
2022-11-27T10:59:17.434Z,-3.57
2022-11-27T11:02:41.148Z,-3.55
2022-11-27T11:06:20.693Z,-3.55
2022-11-27T11:09:48.742Z,-3.53
2022-11-27T11:13:18.939Z,-3.51
2022-11-27T11:16:44.764Z,-3.48
2022-11-27T11:20:20.333Z,-3.49
2022-11-27T11:23:42.579Z,-3.49
2022-11-27T11:27:08.400Z,-3.46
2022-11-27T11:30:32.167Z,-3.41
2022-11-27T11:33:57.766Z,-3.43
2022-11-27T11:37:24.656Z,-3.46
2022-11-27T11:41:00.582Z,-3.39
2022-11-27T11:44:27.298Z,-3.41
2022-11-27T11:47:51.429Z,-3.49
2022-11-27T11:51:29.267Z,-3.39
2022-11-27T11:55:00.179Z,-3.33
2022-11-27T11:58:38.361Z,-3.31
2022-11-27T12:02:30.450Z,-3.36
2022-11-27T12:06:07.305Z,-3.31
2022-11-27T12:09:43.720Z,-3.30
2022-11-27T12:13:22.244Z,-3.28
2022-11-27T12:17:01.799Z,-3.32
2022-11-27T12:20:33.550Z,-3.36
2022-11-27T12:24:11.096Z,-3.35
2022-11-27T12:27:44.255Z,-3.32
2022-11-27T12:31:15.071Z,-3.33
2022-11-27T12:34:47.424Z,-3.30
2022-11-27T12:38:21.255Z,-3.30
2022-11-27T12:42:10.187Z,-3.31
2022-11-27T12:45:38.854Z,-3.33
2022-11-27T12:49:07.186Z,-3.25
2022-11-27T12:52:34.902Z,-3.26
2022-11-27T12:56:04.885Z,-3.28
2022-11-27T12:59:33.874Z,-3.33
2022-11-27T13:03:05.861Z,-3.27
2022-11-27T13:06:32.748Z,-3.30
2022-11-27T13:10:04.071Z,-3.30
2022-11-27T13:13:31.566Z,-3.31
2022-11-27T13:16:57.915Z,-3.30
2022-11-27T13:20:25.767Z,-3.30
2022-11-27T13:23:49.443Z,-3.29
2022-11-27T13:27:17.280Z,-3.31
2022-11-27T13:30:40.019Z,-3.32
2022-11-27T13:34:05.885Z,-3.38
2022-11-27T13:37:31.819Z,-3.35
2022-11-27T13:40:57.716Z,-3.40
2022-11-27T13:44:26.448Z,-3.36
2022-11-27T13:47:49.215Z,-3.34
2022-11-27T13:51:12.653Z,-3.34
2022-11-27T13:54:34.713Z,-3.34
2022-11-27T13:57:59.515Z,-3.36
2022-11-27T14:01:24.474Z,-3.37
2022-11-27T14:04:56.483Z,-3.36
2022-11-27T14:08:20.793Z,-3.36
2022-11-27T14:11:45.850Z,-3.39
2022-11-27T14:15:11.843Z,-3.38
2022-11-27T14:18:34.714Z,-3.40
2022-11-27T14:21:56.956Z,-3.41
2022-11-27T14:25:22.665Z,-3.41
2022-11-27T14:28:46.796Z,-3.37
2022-11-27T14:32:14.717Z,-3.38
2022-11-27T14:35:36.687Z,-3.37
2022-11-27T14:38:58.873Z,-3.40
2022-11-27T14:42:28.152Z,-3.42
2022-11-27T14:45:54.239Z,-3.48
2022-11-27T14:49:20.222Z,-3.41
2022-11-27T14:52:43.728Z,-3.41
2022-11-27T14:56:06.782Z,-3.41
2022-11-27T14:59:29.031Z,-3.40
2022-11-27T15:02:52.223Z,-3.38
2022-11-27T15:06:21.222Z,-3.40
2022-11-27T15:09:46.493Z,-3.39
2022-11-27T15:13:21.069Z,-3.36
2022-11-27T15:16:47.565Z,-3.34
2022-11-27T15:20:16.729Z,-3.35
2022-11-27T15:23:46.139Z,-3.33
2022-11-27T15:27:29.438Z,-3.36
2022-11-27T15:30:52.398Z,-3.37
2022-11-27T15:34:24.503Z,-3.37
2022-11-27T15:37:46.446Z,-3.37
2022-11-27T15:41:22.192Z,-3.33
2022-11-27T15:45:11.147Z,-3.32
2022-11-27T15:48:33.096Z,-3.32
2022-11-27T15:51:55.911Z,-3.35
2022-11-27T15:55:17.797Z,-3.34
2022-11-27T15:58:41.806Z,-3.33
2022-11-27T16:02:04.082Z,-3.37
2022-11-27T16:05:25.999Z,-3.29
2022-11-27T16:08:48.341Z,-3.28
2022-11-27T16:12:10.093Z,-3.28
2022-11-27T16:15:33.761Z,-3.26
2022-11-27T16:18:59.784Z,-3.25
2022-11-27T16:22:21.998Z,-3.27
2022-11-27T16:25:43.833Z,-3.23
2022-11-27T16:29:05.619Z,-3.27
2022-11-27T16:32:29.212Z,-3.26
2022-11-27T16:35:51.181Z,-3.21
2022-11-27T16:39:13.527Z,-3.19
2022-11-27T16:42:35.597Z,-3.19
2022-11-27T16:46:06.841Z,-3.16
2022-11-27T16:49:32.424Z,-3.17
2022-11-27T16:52:55.598Z,-3.17
2022-11-27T16:56:20.096Z,-3.18
2022-11-27T16:59:42.225Z,-3.22
2022-11-27T17:03:04.257Z,-3.18
2022-11-27T17:06:29.119Z,-3.15
2022-11-27T17:09:51.167Z,-3.14
2022-11-27T17:13:13.198Z,-3.12
2022-11-27T17:16:36.119Z,-3.15
2022-11-27T17:20:00.571Z,-3.17
2022-11-27T17:23:24.052Z,-3.09
2022-11-27T17:26:47.372Z,-3.07
2022-11-27T17:30:10.491Z,-3.05
2022-11-27T17:33:32.194Z,-3.09
2022-11-27T17:36:57.593Z,-3.07
2022-11-27T17:40:20.971Z,-3.06
2022-11-27T17:43:43.647Z,-3.03
2022-11-27T17:47:05.841Z,-3.04
2022-11-27T17:50:27.808Z,-3.01
2022-11-27T17:53:50.551Z,-3.04
2022-11-27T17:57:13.918Z,-3.01
2022-11-27T18:00:36.053Z,-3.00
2022-11-27T18:04:01.411Z,-3.02
2022-11-27T18:07:23.652Z,-2.97
2022-11-27T18:10:45.538Z,-2.95
2022-11-27T18:14:09.357Z,-2.94
2022-11-27T18:17:30.921Z,-2.92
2022-11-27T18:20:53.178Z,-2.94
2022-11-27T18:24:23.964Z,-2.92
2022-11-27T18:27:46.904Z,-2.89
2022-11-27T18:31:12.663Z,-2.90
2022-11-27T18:34:34.573Z,-2.91
2022-11-27T18:37:56.631Z,-2.90
2022-11-27T18:41:21.133Z,-2.95
2022-11-27T18:44:45.168Z,-2.90
2022-11-27T18:48:09.604Z,-2.90
2022-11-27T18:51:31.820Z,-2.89
2022-11-27T18:54:53.617Z,-2.89
2022-11-27T18:58:15.680Z,-2.92
2022-11-27T19:01:42.242Z,-2.90
2022-11-27T19:05:07.529Z,-2.90
2022-11-27T19:08:30.419Z,-2.91
2022-11-27T19:11:53.137Z,-2.90
2022-11-27T19:15:15.075Z,-2.90
2022-11-27T19:18:37.775Z,-2.91
2022-11-27T19:22:01.130Z,-2.87
2022-11-27T19:25:23.272Z,-2.87
2022-11-27T19:28:45.962Z,-2.86
2022-11-27T19:32:08.303Z,-2.85
2022-11-27T19:35:34.341Z,-2.84
2022-11-27T19:38:59.820Z,-2.82
2022-11-27T19:42:21.859Z,-2.82
2022-11-27T19:45:44.238Z,-2.86
2022-11-27T19:49:08.111Z,-2.84
2022-11-27T19:52:30.325Z,-2.98
2022-11-27T19:55:56.053Z,-2.86
2022-11-27T19:59:22.742Z,-2.86
2022-11-27T20:02:47.609Z,-2.83
2022-11-27T20:06:12.013Z,-2.81
2022-11-27T20:09:34.221Z,-2.82
2022-11-27T20:13:01.189Z,-2.81
2022-11-27T20:16:23.191Z,-2.80
2022-11-27T20:19:45.304Z,-2.84
2022-11-27T20:23:07.357Z,-2.81
2022-11-27T20:26:41.292Z,-2.78
2022-11-27T20:30:07.601Z,-2.78
2022-11-27T20:33:30.115Z,-2.79
2022-11-27T20:36:52.199Z,-2.79
2022-11-27T20:40:14.378Z,-2.77
2022-11-27T20:43:36.908Z,-2.82
2022-11-27T20:47:00.365Z,-2.80
2022-11-27T20:50:22.047Z,-2.81
2022-11-27T20:53:46.003Z,-2.81
2022-11-27T20:57:14.166Z,-2.80
2022-11-27T21:00:36.110Z,-2.84
2022-11-27T21:04:01.261Z,-2.79
2022-11-27T21:07:22.865Z,-2.76
2022-11-27T21:10:44.972Z,-2.75
2022-11-27T21:14:08.954Z,-2.72
2022-11-27T21:17:31.288Z,-2.73
2022-11-27T21:20:54.628Z,-2.69
2022-11-27T21:24:16.557Z,-2.70
2022-11-27T21:27:38.507Z,-2.71
2022-11-27T21:31:07.254Z,-2.72
2022-11-27T21:34:29.164Z,-2.72
2022-11-27T21:37:52.169Z,-2.72
2022-11-27T21:41:14.481Z,-2.69
2022-11-27T21:44:39.848Z,-2.71
2022-11-27T21:48:02.178Z,-2.66
2022-11-27T21:51:23.873Z,-2.65
2022-11-27T21:54:46.825Z,-2.62
2022-11-27T21:58:08.896Z,-2.58
2022-11-27T22:01:30.724Z,-2.57
2022-11-27T22:04:52.739Z,-2.57
2022-11-27T22:11:55.497Z,-2.50
2022-11-27T22:15:17.316Z,-2.51
2022-11-27T22:18:39.373Z,-2.53
2022-11-27T22:22:01.226Z,-2.61
2022-11-27T22:25:22.862Z,-2.58
2022-11-27T22:28:52.195Z,-2.58
2022-11-27T22:32:13.963Z,-2.60
2022-11-27T22:35:35.604Z,-2.68
2022-11-27T22:38:57.932Z,-2.66
2022-11-27T22:42:20.051Z,-2.68
2022-11-27T22:45:47.984Z,-2.65
2022-11-27T22:49:12.676Z,-2.74
2022-11-27T22:52:34.702Z,-2.70
2022-11-27T22:55:57.120Z,-2.77
2022-11-27T22:59:34.806Z,-2.70
2022-11-27T23:02:58.657Z,-2.71
2022-11-27T23:06:22.954Z,-2.73
2022-11-27T23:09:44.533Z,-2.80
2022-11-27T23:13:06.536Z,-2.73
2022-11-27T23:16:28.572Z,-2.70
2022-11-27T23:19:52.011Z,-2.72
2022-11-27T23:23:13.798Z,-2.74
2022-11-27T23:26:37.537Z,-2.72
2022-11-27T23:29:59.802Z,-2.75
2022-11-27T23:33:21.987Z,-2.73
2022-11-27T23:36:45.427Z,-2.74
2022-11-27T23:40:08.769Z,-2.77
2022-11-27T23:43:30.738Z,-2.78
2022-11-27T23:46:52.584Z,-2.80
2022-11-27T23:50:14.233Z,-2.77
2022-11-27T23:53:38.456Z,-2.76
2022-11-27T23:57:00.431Z,-2.79
